Time;durP1;ratioP1;P1;durP2;ratioP2;P2;SDS_P1;SDS_P2;PMS_P1;PMS_P2;Temp;Humidity;BMP_temperature;BMP_pressure;BME280_temperature;BME280_humidity;BME280_pressure;Samples;Min_cycle;Max_cycle;Signal;HPM_P1;HPM_P2
2020/12/23 00:00:58;;;;;;;1.93;1.83;;;14.00;90.20;;;;;;5069580;28;20191;-89
2020/12/23 00:03:24;;;;;;;2.70;2.27;;;14.00;90.00;;;;;;5067107;28;20595;-90
2020/12/23 00:05:50;;;;;;;1.90;1.80;;;13.80;90.60;;;;;;5069662;28;20192;-90
2020/12/23 00:08:15;;;;;;;2.10;2.00;;;14.00;88.90;;;;;;5069045;28;20192;-89
2020/12/23 00:10:41;;;;;;;1.80;1.70;;;14.10;88.70;;;;;;5052186;28;20193;-89
2020/12/23 00:13:08;;;;;;;2.00;1.80;;;14.00;89.00;;;;;;5067358;28;20220;-90
2020/12/23 00:15:34;;;;;;;3.70;2.00;;;13.90;89.60;;;;;;5068725;28;20270;-89
2020/12/23 00:18:00;;;;;;;2.00;1.90;;;14.00;89.10;;;;;;5067326;28;20219;-90
2020/12/23 00:20:26;;;;;;;3.43;1.80;;;14.00;89.60;;;;;;5067858;28;20188;-89
2020/12/23 00:22:51;;;;;;;2.40;1.90;;;14.10;88.90;;;;;;5068795;28;20209;-90
2020/12/23 00:25:17;;;;;;;2.37;1.90;;;14.00;89.90;;;;;;5050430;28;20213;-90
2020/12/23 00:27:43;;;;;;;1.70;1.60;;;14.00;88.90;;;;;;5068975;28;20199;-89
2020/12/23 00:30:08;;;;;;;1.90;1.80;;;14.00;88.60;;;;;;5066600;28;20188;-89
2020/12/23 00:32:34;;;;;;;2.00;1.90;;;13.90;89.30;;;;;;5067764;28;20202;-90
2020/12/23 00:35:00;;;;;;;2.20;2.00;;;13.80;89.80;;;;;;5072825;28;20657;-89
2020/12/23 00:37:26;;;;;;;2.30;2.10;;;13.90;89.00;;;;;;5066919;28;20211;-90
2020/12/23 00:39:51;;;;;;;4.30;2.73;;;14.00;88.40;;;;;;5068547;28;20202;-89
2020/12/23 00:42:23;;;;;;;1.83;1.73;;;13.90;89.80;;;;;;5066831;28;20283;-89
2020/12/23 00:44:49;;;;;;;1.80;1.70;;;13.90;89.70;;;;;;5068356;28;20183;-89
2020/12/23 00:47:15;;;;;;;1.90;1.80;;;13.80;89.40;;;;;;5068490;28;21880;-89
2020/12/23 00:49:41;;;;;;;2.90;2.07;;;13.70;90.10;;;;;;5067130;28;20618;-90
2020/12/23 00:52:06;;;;;;;2.33;1.73;;;13.70;90.80;;;;;;5067851;28;20652;-89
2020/12/23 00:54:35;;;;;;;1.90;1.80;;;13.80;89.70;;;;;;5067360;28;20176;-89
2020/12/23 00:57:01;;;;;;;2.00;1.90;;;13.80;89.70;;;;;;5067105;28;20218;-89
2020/12/23 00:59:27;;;;;;;2.60;2.20;;;13.70;90.30;;;;;;5067608;28;20172;-90
2020/12/23 01:02:03;;;;;;;2.23;2.03;;;13.70;90.30;;;;;;5071079;28;20533;-89
2020/12/23 01:04:29;;;;;;;2.10;2.00;;;13.80;88.90;;;;;;5076085;28;20736;-90
2020/12/23 01:06:55;;;;;;;2.17;2.07;;;13.70;89.20;;;;;;5068365;28;20196;-90
2020/12/23 01:09:21;;;;;;;1.93;1.83;;;13.70;89.40;;;;;;5066798;28;20217;-91
2020/12/23 01:11:48;;;;;;;3.00;2.43;;;13.60;90.00;;;;;;5059922;28;20208;-90
2020/12/23 01:14:15;;;;;;;2.50;2.10;;;13.70;89.90;;;;;;5056325;28;20302;-90
2020/12/23 01:16:41;;;;;;;2.40;2.20;;;13.60;90.20;;;;;;5061653;28;20295;-90
2020/12/23 01:19:06;;;;;;;2.40;2.20;;;13.60;90.10;;;;;;5060337;28;20185;-90
2020/12/23 01:21:32;;;;;;;1.93;1.83;;;13.60;90.20;;;;;;5061658;28;20235;-89
2020/12/23 01:23:58;;;;;;;2.40;2.20;;;13.70;89.80;;;;;;5061004;28;20218;-89
2020/12/23 01:26:23;;;;;;;1.80;1.70;;;13.80;89.50;;;;;;5062312;28;20215;-90
2020/12/23 01:28:49;;;;;;;2.20;2.00;;;13.80;88.60;;;;;;5060523;28;20199;-90
2020/12/23 01:31:15;;;;;;;2.30;2.10;;;13.80;89.00;;;;;;5061805;28;20196;-90
2020/12/23 01:33:41;;;;;;;1.80;1.70;;;13.70;90.10;;;;;;5062979;28;20225;-89
2020/12/23 01:36:07;;;;;;;2.10;1.90;;;13.70;89.90;;;;;;5062021;28;20218;-90
2020/12/23 01:38:33;;;;;;;2.20;1.80;;;13.70;90.30;;;;;;5061678;28;20183;-90
2020/12/23 01:41:00;;;;;;;1.90;1.80;;;13.60;90.20;;;;;;5061036;28;20207;-90
2020/12/23 01:43:26;;;;;;;1.67;1.57;;;13.60;90.30;;;;;;5061432;28;20192;-90
2020/12/23 01:45:53;;;;;;;4.20;2.10;;;13.60;90.90;;;;;;5062334;28;20543;-90
2020/12/23 01:48:24;;;;;;;2.13;2.03;;;13.60;91.80;;;;;;5060870;28;20202;-90
2020/12/23 01:50:50;;;;;;;2.10;2.00;;;13.60;92.00;;;;;;5061855;28;20735;-90
2020/12/23 01:53:17;;;;;;;2.13;1.90;;;13.50;93.50;;;;;;5062253;28;20229;-91
2020/12/23 01:55:47;;;;;;;1.80;1.70;;;13.30;94.50;;;;;;5062747;28;20204;-90
2020/12/23 01:58:13;;;;;;;2.00;1.90;;;13.30;95.40;;;;;;5044621;28;20760;-91
2020/12/23 02:00:40;;;;;;;2.20;2.00;;;13.20;95.70;;;;;;5062358;28;20270;-89
2020/12/23 02:03:09;;;;;;;2.07;1.87;;;13.20;96.00;;;;;;5061172;28;20203;-90
2020/12/23 02:05:41;;;;;;;2.33;2.00;;;13.30;96.00;;;;;;5062732;28;20176;-91
2020/12/23 02:08:11;;;;;;;2.73;1.90;;;13.20;96.20;;;;;;5061429;28;20271;-91
2020/12/23 02:10:37;;;;;;;3.10;2.00;;;13.20;96.90;;;;;;5061040;28;20617;-90
2020/12/23 02:13:02;;;;;;;2.07;1.80;;;13.20;96.20;;;;;;5044911;28;20211;-91
2020/12/23 02:15:28;;;;;;;3.47;2.03;;;13.10;96.80;;;;;;5063798;28;20188;-91
2020/12/23 02:17:54;;;;;;;2.10;1.70;;;13.10;97.30;;;;;;5062351;28;20221;-91
2020/12/23 02:20:20;;;;;;;1.67;1.50;;;13.00;98.10;;;;;;5061893;28;20195;-90
2020/12/23 02:22:49;;;;;;;2.00;1.90;;;13.00;98.80;;;;;;5062625;28;20206;-90
2020/12/23 02:25:15;;;;;;;2.60;2.00;;;13.00;99.10;;;;;;5061546;28;20691;-91
2020/12/23 02:27:42;;;;;;;1.93;1.83;;;13.10;98.00;;;;;;5060776;28;20191;-91
2020/12/23 02:30:10;;;;;;;2.27;2.07;;;13.20;97.30;;;;;;5060620;28;20183;-90
2020/12/23 02:32:36;;;;;;;2.67;1.90;;;13.20;97.30;;;;;;5061362;28;20225;-91
2020/12/23 02:35:04;;;;;;;2.10;1.90;;;13.10;97.80;;;;;;5060576;28;20574;-92
2020/12/23 02:37:30;;;;;;;2.17;1.90;;;13.10;97.40;;;;;;5061811;28;20571;-91
2020/12/23 02:39:56;;;;;;;1.70;1.60;;;13.20;97.30;;;;;;5059934;28;20179;-91
2020/12/23 02:42:23;;;;;;;2.80;1.80;;;13.20;97.00;;;;;;5061537;28;20206;-91
2020/12/23 02:44:50;;;;;;;2.67;2.00;;;13.20;97.00;;;;;;5043960;28;20263;-92
2020/12/23 02:47:17;;;;;;;3.30;1.77;;;13.10;98.10;;;;;;5060118;28;20201;-90
2020/12/23 02:49:44;;;;;;;2.67;1.97;;;13.10;98.00;;;;;;5043949;28;20184;-92
2020/12/23 02:52:10;;;;;;;1.90;1.80;;;13.10;98.10;;;;;;5061873;28;20203;-91
2020/12/23 02:54:37;;;;;;;1.90;1.80;;;13.10;98.30;;;;;;5060749;28;20199;-92
2020/12/23 02:57:03;;;;;;;2.53;2.10;;;13.10;98.80;;;;;;5060623;28;20215;-92
2020/12/23 02:59:29;;;;;;;2.20;2.00;;;13.10;98.30;;;;;;5060355;28;20779;-91
2020/12/23 03:01:55;;;;;;;2.33;2.13;;;13.10;98.10;;;;;;5044772;28;20203;-91
2020/12/23 03:04:21;;;;;;;1.90;1.80;;;13.10;98.70;;;;;;5061321;28;20253;-91
2020/12/23 03:06:46;;;;;;;2.00;1.90;;;13.10;98.60;;;;;;5061595;28;20652;-91
2020/12/23 03:09:13;;;;;;;1.93;1.83;;;13.10;98.90;;;;;;5062484;28;20201;-91
2020/12/23 03:11:39;;;;;;;2.57;2.03;;;13.10;99.10;;;;;;5060500;28;20211;-92
2020/12/23 03:14:06;;;;;;;2.17;2.07;;;13.00;99.50;;;;;;5061612;28;20184;-92
2020/12/23 03:16:33;;;;;;;2.20;2.00;;;13.00;99.70;;;;;;5044632;28;20211;-91
2020/12/23 03:18:59;;;;;;;2.23;2.07;;;13.00;99.90;;;;;;5063167;28;20739;-91
2020/12/23 03:21:25;;;;;;;2.23;2.07;;;13.00;99.90;;;;;;5045216;28;20280;-91
2020/12/23 03:23:50;;;;;;;2.40;2.20;;;13.00;99.90;;;;;;5061627;28;20182;-92
2020/12/23 03:26:16;;;;;;;2.40;2.20;;;12.90;99.90;;;;;;5062734;28;20176;-91
2020/12/23 03:28:42;;;;;;;2.70;2.50;;;12.90;99.90;;;;;;5061483;28;20185;-91
2020/12/23 03:31:08;;;;;;;2.47;2.27;;;12.80;99.90;;;;;;5061627;28;20196;-90
2020/12/23 03:33:35;;;;;;;4.60;2.50;;;12.90;99.90;;;;;;5061141;28;20196;-91
2020/12/23 03:36:01;;;;;;;2.13;2.00;;;12.80;99.90;;;;;;5045129;28;20215;-91
2020/12/23 03:38:27;;;;;;;2.90;2.70;;;12.80;99.90;;;;;;5062699;28;20204;-91
2020/12/23 03:40:53;;;;;;;3.20;2.60;;;12.70;99.90;;;;;;5062381;28;20179;-92
2020/12/23 03:43:20;;;;;;;3.10;2.80;;;12.90;99.90;;;;;;5064951;28;20273;-91
2020/12/23 03:45:45;;;;;;;2.50;2.30;;;12.80;99.90;;;;;;5073891;28;20188;-91
2020/12/23 03:48:11;;;;;;;3.20;2.40;;;12.70;99.90;;;;;;5065516;28;20215;-91
2020/12/23 03:50:37;;;;;;;2.80;2.20;;;12.80;99.90;;;;;;5045604;28;20379;-91
2020/12/23 03:53:03;;;;;;;2.60;2.40;;;12.80;99.90;;;;;;5070447;28;20195;-91
2020/12/23 03:55:29;;;;;;;2.50;2.30;;;12.90;99.90;;;;;;5079718;28;20189;-91
2020/12/23 03:57:54;;;;;;;2.40;2.20;;;12.80;99.90;;;;;;5058942;28;20705;-91
2020/12/23 04:00:20;;;;;;;3.10;2.30;;;12.90;99.90;;;;;;5066730;28;20188;-91
2020/12/23 04:02:46;;;;;;;2.30;2.10;;;12.80;99.90;;;;;;5067561;28;20207;-91
2020/12/23 04:05:12;;;;;;;2.60;2.40;;;12.90;99.90;;;;;;5065397;28;20193;-91
2020/12/23 04:07:38;;;;;;;3.50;2.63;;;12.80;99.90;;;;;;5066524;28;20178;-92
2020/12/23 04:10:06;;;;;;;2.50;2.30;;;12.90;99.90;;;;;;5066086;28;20601;-91
2020/12/23 04:12:32;;;;;;;3.60;2.50;;;12.80;99.90;;;;;;5066900;28;20194;-92
2020/12/23 04:14:58;;;;;;;2.60;2.37;;;12.80;99.90;;;;;;5085577;28;20188;-91
2020/12/23 04:17:24;;;;;;;2.30;2.20;;;12.80;99.90;;;;;;5086942;28;20199;-92
2020/12/23 04:19:50;;;;;;;2.70;2.23;;;12.80;99.90;;;;;;5051670;28;20178;-91
2020/12/23 04:22:16;;;;;;;3.87;2.50;;;12.80;99.90;;;;;;5066004;28;20713;-91
2020/12/23 04:24:42;;;;;;;2.40;2.20;;;12.80;99.00;;;;;;5068156;28;20200;-91
2020/12/23 04:27:07;;;;;;;2.50;2.30;;;12.80;99.80;;;;;;5068129;28;20203;-91
2020/12/23 04:29:33;;;;;;;2.77;2.37;;;12.80;99.80;;;;;;5050276;28;20181;-91
2020/12/23 04:31:59;;;;;;;7.33;2.37;;;12.80;99.90;;;;;;5066801;28;20829;-91
2020/12/23 04:34:25;;;;;;;2.40;2.20;;;12.80;99.90;;;;;;5067016;28;20193;-92
2020/12/23 04:36:51;;;;;;;2.13;2.03;;;12.80;99.90;;;;;;5067973;28;20209;-91
2020/12/23 04:39:16;;;;;;;2.67;2.07;;;12.70;99.90;;;;;;5050371;28;20253;-91
2020/12/23 04:41:42;;;;;;;3.40;2.00;;;12.60;99.90;;;;;;5067757;28;20202;-92
2020/12/23 04:44:08;;;;;;;2.87;2.57;;;12.50;99.90;;;;;;5066746;28;20195;-91
2020/12/23 04:46:41;;;;;;;2.47;2.27;;;12.60;99.90;;;;;;5050132;28;20187;-91
2020/12/23 04:49:08;;;;;;;3.50;2.20;;;12.70;99.90;;;;;;5066664;28;20204;-91
2020/12/23 04:51:39;;;;;;;2.70;2.50;;;12.80;99.90;;;;;;5068229;28;20183;-91
2020/12/23 04:54:07;;;;;;;3.07;2.87;;;12.80;99.90;;;;;;5067779;28;20195;-92
2020/12/23 04:56:35;;;;;;;3.53;2.90;;;12.80;99.90;;;;;;5067885;28;20246;-92
2020/12/23 04:59:03;;;;;;;2.97;2.67;;;12.70;99.90;;;;;;5067446;28;20177;-91
2020/12/23 05:01:29;;;;;;;2.67;2.47;;;12.70;99.90;;;;;;5049380;28;20181;-91
2020/12/23 05:03:55;;;;;;;3.10;2.80;;;12.60;99.90;;;;;;5067518;28;20180;-91
2020/12/23 05:06:24;;;;;;;3.13;2.77;;;12.60;99.90;;;;;;5067206;28;20559;-91
2020/12/23 05:08:51;;;;;;;2.60;2.40;;;12.60;99.90;;;;;;5067706;28;20190;-91
2020/12/23 05:11:17;;;;;;;3.10;2.80;;;12.60;99.90;;;;;;5066077;28;20190;-91
2020/12/23 05:13:43;;;;;;;3.30;3.00;;;12.50;99.90;;;;;;5066121;28;20199;-90
2020/12/23 05:16:21;;;;;;;3.93;3.60;;;12.50;99.90;;;;;;5066426;28;20189;-92
2020/12/23 05:18:47;;;;;;;3.73;3.33;;;12.50;99.90;;;;;;5066769;28;20209;-91
2020/12/23 05:21:15;;;;;;;3.23;3.03;;;12.70;99.90;;;;;;5066735;28;20179;-90
2020/12/23 05:23:46;;;;;;;3.50;3.20;;;12.60;99.90;;;;;;5065692;28;20220;-90
2020/12/23 05:26:13;;;;;;;3.10;2.90;;;12.60;99.90;;;;;;5066176;28;20193;-91
2020/12/23 05:28:41;;;;;;;3.50;3.20;;;12.60;99.90;;;;;;5050093;28;20265;-90
2020/12/23 05:31:12;;;;;;;3.67;2.70;;;12.60;99.90;;;;;;5066244;28;20469;-90
2020/12/23 05:33:40;;;;;;;3.87;3.37;;;12.50;99.90;;;;;;5067551;28;20738;-90
2020/12/23 05:36:08;;;;;;;3.80;3.27;;;12.40;99.90;;;;;;5067487;28;20195;-90
2020/12/23 05:38:36;;;;;;;4.47;3.50;;;12.40;99.90;;;;;;5049278;28;20225;-91
2020/12/23 05:41:04;;;;;;;4.83;3.23;;;12.40;99.90;;;;;;5067469;28;20202;-91
2020/12/23 05:43:30;;;;;;;3.07;2.60;;;12.40;99.90;;;;;;5049460;28;20215;-91
2020/12/23 05:45:57;;;;;;;3.63;3.00;;;12.40;99.90;;;;;;5057614;28;20178;-91
2020/12/23 05:48:23;;;;;;;3.17;2.63;;;12.40;99.90;;;;;;5069797;28;20207;-91
2020/12/23 05:50:49;;;;;;;4.70;3.50;;;12.40;99.90;;;;;;5077194;28;20226;-91
2020/12/23 05:53:16;;;;;;;4.00;3.70;;;12.40;99.90;;;;;;5066246;28;20218;-91
2020/12/23 05:55:50;;;;;;;4.87;3.80;;;12.40;99.90;;;;;;5065294;28;20617;-91
2020/12/23 05:58:27;;;;;;;3.10;2.90;;;12.40;99.90;;;;;;5048654;28;20219;-90
2020/12/23 06:00:55;;;;;;;3.73;3.43;;;12.30;99.90;;;;;;5049262;28;20219;-90
2020/12/23 06:03:51;;;;;;;10.97;9.30;;;12.30;99.90;;;;;;5047931;28;20212;-90
2020/12/23 06:06:22;;;;;;;6.20;5.17;;;12.30;99.90;;;;;;5044246;28;20706;-90
2020/12/23 06:08:51;;;;;;;8.03;6.60;;;12.30;99.90;;;;;;5028682;28;20187;-90
2020/12/23 06:11:33;;;;;;;7.10;6.40;;;12.30;99.90;;;;;;5058007;28;20211;-90
2020/12/23 06:14:20;;;;;;;4.10;3.60;;;12.40;99.90;;;;;;5066424;28;20232;-90
2020/12/23 06:16:58;;;;;;;7.57;6.80;;;12.30;99.90;;;;;;5063260;28;20211;-91
2020/12/23 06:19:37;;;;;;;7.10;5.27;;;12.40;99.90;;;;;;5063770;28;20263;-90
2020/12/23 06:22:05;;;;;;;7.27;6.57;;;12.50;99.90;;;;;;5064650;28;20253;-91
2020/12/23 06:24:32;;;;;;;8.07;6.80;;;12.40;99.90;;;;;;5062845;28;20187;-90
2020/12/23 06:27:00;;;;;;;28.87;24.63;;;12.30;99.90;;;;;;5065241;28;20220;-91
2020/12/23 06:29:30;;;;;;;8.83;7.93;;;12.30;99.90;;;;;;5077611;28;20190;-91
2020/12/23 06:32:00;;;;;;;8.97;8.17;;;12.30;99.90;;;;;;5082109;28;20223;-92
2020/12/23 06:34:28;;;;;;;4.50;4.20;;;12.30;99.90;;;;;;5057310;28;20184;-92
2020/12/23 06:36:54;;;;;;;3.50;3.20;;;12.50;99.90;;;;;;5078973;28;20217;-93
2020/12/23 06:39:31;;;;;;;3.90;3.20;;;12.40;99.90;;;;;;5078047;28;20179;-95
2020/12/23 06:42:17;;;;;;;3.73;3.43;;;12.50;99.90;;;;;;5052287;28;20224;-91
2020/12/23 06:44:45;;;;;;;3.20;2.90;;;12.40;99.90;;;;;;5057016;28;20190;-91
2020/12/23 06:47:12;;;;;;;4.30;3.30;;;12.30;99.90;;;;;;5064365;28;20172;-90
2020/12/23 06:49:44;;;;;;;3.70;3.40;;;12.30;99.90;;;;;;5045106;28;20191;-91
2020/12/23 06:52:31;;;;;;;4.37;3.53;;;12.10;99.90;;;;;;5063581;28;20411;-91
2020/12/23 06:55:07;;;;;;;3.73;3.43;;;12.10;99.90;;;;;;5064332;28;20328;-92
2020/12/23 06:57:38;;;;;;;3.50;3.20;;;12.10;99.90;;;;;;5064750;28;20208;-91
2020/12/23 07:00:04;;;;;;;3.30;3.00;;;12.00;99.90;;;;;;5063822;28;20322;-91
2020/12/23 07:02:33;;;;;;;3.30;3.10;;;12.10;99.90;;;;;;5065565;28;20207;-91
2020/12/23 07:04:59;;;;;;;3.93;3.63;;;12.10;99.90;;;;;;5063429;28;20191;-91
2020/12/23 07:07:37;;;;;;;5.00;3.73;;;12.20;99.90;;;;;;5062877;28;20176;-91
2020/12/23 07:10:12;;;;;;;4.47;3.00;;;12.20;99.90;;;;;;5063511;28;20190;-91
2020/12/23 07:12:42;;;;;;;3.40;3.10;;;12.30;99.90;;;;;;5078252;28;20209;-91
2020/12/23 07:15:13;;;;;;;3.50;3.20;;;12.30;99.90;;;;;;5082775;28;20248;-91
2020/12/23 07:17:41;;;;;;;4.27;3.07;;;12.40;99.90;;;;;;5082031;28;20224;-91
2020/12/23 07:20:07;;;;;;;3.53;3.23;;;12.30;99.90;;;;;;5066015;28;20188;-91
2020/12/23 07:22:34;;;;;;;3.13;2.90;;;12.10;99.90;;;;;;5082320;28;20260;-91
2020/12/23 07:25:00;;;;;;;3.13;2.90;;;12.10;99.90;;;;;;5083566;28;20188;-91
2020/12/23 07:27:27;;;;;;;3.03;2.83;;;12.10;99.90;;;;;;5077927;28;20176;-91
2020/12/23 07:30:05;;;;;;;4.47;3.27;;;12.10;99.90;;;;;;5065740;28;20220;-90
2020/12/23 07:32:30;;;;;;;3.63;3.30;;;12.10;99.90;;;;;;5066413;28;20257;-91
2020/12/23 07:34:59;;;;;;;3.67;3.27;;;12.20;99.90;;;;;;5067005;28;20194;-90
2020/12/23 07:37:40;;;;;;;4.10;3.70;;;12.30;99.90;;;;;;5065815;28;20230;-91
2020/12/23 07:40:16;;;;;;;6.70;6.20;;;12.20;99.90;;;;;;5067195;28;20270;-90
2020/12/23 07:42:49;;;;;;;6.03;5.53;;;12.40;99.00;;;;;;5066572;28;20683;-89
2020/12/23 07:45:19;;;;;;;7.43;6.83;;;12.50;97.40;;;;;;5066949;28;20533;-90
2020/12/23 07:48:03;;;;;;;5.97;5.47;;;12.60;96.90;;;;;;5065107;28;20212;-90
2020/12/23 07:50:43;;;;;;;3.37;2.87;;;12.50;96.70;;;;;;5062827;28;20216;-90
2020/12/23 07:53:14;;;;;;;3.10;2.80;;;12.60;95.70;;;;;;5071768;28;20231;-91
2020/12/23 07:55:42;;;;;;;5.43;2.73;;;12.50;95.50;;;;;;5070401;28;20184;-91
2020/12/23 07:58:08;;;;;;;2.80;2.40;;;12.40;95.60;;;;;;5073465;28;20240;-91
2020/12/23 08:00:37;;;;;;;5.13;2.77;;;12.30;96.00;;;;;;5066493;28;20266;-90
2020/12/23 08:03:06;;;;;;;2.60;2.40;;;12.20;97.00;;;;;;5069593;28;20219;-90
2020/12/23 08:05:32;;;;;;;3.30;2.40;;;12.30;97.00;;;;;;5067620;28;20294;-90
2020/12/23 08:07:58;;;;;;;2.60;2.40;;;12.30;95.90;;;;;;5070432;28;20202;-91
2020/12/23 08:10:24;;;;;;;2.30;2.10;;;12.20;96.30;;;;;;5070653;28;20193;-90
2020/12/23 08:12:56;;;;;;;2.50;2.30;;;12.20;96.20;;;;;;5075367;28;20243;-90
2020/12/23 08:15:22;;;;;;;3.63;2.10;;;12.20;96.40;;;;;;5074454;28;20189;-90
2020/12/23 08:17:57;;;;;;;2.27;1.90;;;12.20;96.00;;;;;;5069014;28;20218;-91
2020/12/23 08:20:23;;;;;;;2.30;2.20;;;12.20;96.30;;;;;;5073345;28;20208;-90
2020/12/23 08:22:49;;;;;;;4.27;2.33;;;12.30;95.10;;;;;;5069053;28;20701;-90
2020/12/23 08:25:17;;;;;;;3.23;2.50;;;12.30;94.60;;;;;;5053596;28;20183;-91
2020/12/23 08:27:45;;;;;;;2.23;2.03;;;12.40;94.90;;;;;;5066269;28;20278;-91
2020/12/23 08:30:16;;;;;;;2.80;2.37;;;12.20;95.50;;;;;;5056860;28;20915;-90
2020/12/23 08:32:44;;;;;;;3.00;2.30;;;12.30;94.90;;;;;;5073484;28;20688;-90
2020/12/23 08:35:11;;;;;;;3.63;2.30;;;12.30;94.90;;;;;;5070660;28;20192;-90
2020/12/23 08:37:37;;;;;;;2.83;2.20;;;12.40;94.00;;;;;;5074045;28;20212;-90
2020/12/23 08:40:05;;;;;;;2.10;2.00;;;12.30;94.50;;;;;;5052355;28;20232;-90
2020/12/23 08:42:31;;;;;;;1.90;1.80;;;12.40;93.60;;;;;;5056789;28;20268;-91
2020/12/23 08:45:00;;;;;;;2.07;1.97;;;12.40;93.70;;;;;;5069607;28;20219;-91
2020/12/23 08:47:30;;;;;;;2.27;2.10;;;12.50;92.80;;;;;;5067849;28;20226;-91
2020/12/23 08:49:57;;;;;;;2.30;2.10;;;12.60;91.40;;;;;;5070689;28;20215;-91
2020/12/23 08:52:24;;;;;;;3.10;2.00;;;12.60;90.70;;;;;;5072294;28;20216;-90
2020/12/23 08:54:51;;;;;;;2.17;1.97;;;12.60;92.30;;;;;;5076103;28;20226;-90
2020/12/23 08:57:25;;;;;;;2.53;2.00;;;12.60;91.70;;;;;;5072669;28;20250;-91
2020/12/23 08:59:52;;;;;;;3.57;1.83;;;12.70;91.00;;;;;;5071130;28;20194;-91
2020/12/23 09:02:18;;;;;;;2.80;1.80;;;12.90;89.10;;;;;;5069028;28;20219;-91
2020/12/23 09:04:44;;;;;;;1.70;1.60;;;13.00;88.80;;;;;;5072205;28;20191;-91
2020/12/23 09:07:11;;;;;;;1.90;1.80;;;13.10;88.40;;;;;;5073384;28;20199;-90
2020/12/23 09:09:37;;;;;;;1.77;1.67;;;13.10;88.20;;;;;;5076796;28;20200;-89
2020/12/23 09:12:04;;;;;;;3.70;1.70;;;13.10;88.40;;;;;;5077542;28;20259;-90
2020/12/23 09:14:32;;;;;;;2.27;1.80;;;13.10;89.10;;;;;;5074860;28;20185;-90
2020/12/23 09:17:23;;;;;;;2.40;1.90;;;13.10;88.90;;;;;;5076983;28;20204;-90
2020/12/23 09:19:54;;;;;;;3.13;2.07;;;13.10;89.30;;;;;;5077000;28;20178;-89
2020/12/23 09:22:30;;;;;;;2.10;1.83;;;13.20;89.50;;;;;;5080343;28;20192;-89
2020/12/23 09:25:11;;;;;;;2.23;2.13;;;13.20;89.70;;;;;;5071528;28;20232;-90
2020/12/23 09:27:37;;;;;;;5.60;4.23;;;13.30;90.10;;;;;;5057701;28;20191;-91
2020/12/23 09:30:03;;;;;;;2.03;1.93;;;13.20;91.00;;;;;;5062766;28;20187;-90
2020/12/23 09:32:28;;;;;;;2.70;2.40;;;13.30;90.70;;;;;;5066868;28;20216;-91
2020/12/23 09:35:14;;;;;;;2.50;2.30;;;13.30;90.10;;;;;;5062144;28;20217;-91
2020/12/23 09:37:41;;;;;;;2.67;2.40;;;13.40;89.90;;;;;;5062506;28;20212;-90
2020/12/23 09:40:07;;;;;;;3.13;2.83;;;13.50;89.50;;;;;;5068000;28;20188;-90
2020/12/23 09:42:34;;;;;;;5.20;2.47;;;13.40;88.90;;;;;;5066979;28;20208;-90
2020/12/23 09:45:00;;;;;;;4.67;2.73;;;13.60;88.30;;;;;;5069991;28;20555;-90
2020/12/23 09:47:25;;;;;;;3.23;2.60;;;13.50;88.80;;;;;;5071441;28;20191;-91
2020/12/23 09:49:51;;;;;;;3.90;2.17;;;13.60;87.60;;;;;;5056121;28;20188;-90
2020/12/23 09:52:17;;;;;;;1.90;1.80;;;13.50;88.60;;;;;;5062040;28;20280;-90
2020/12/23 09:54:43;;;;;;;2.43;1.80;;;13.50;87.70;;;;;;5070129;28;20179;-91
2020/12/23 09:57:08;;;;;;;2.10;1.90;;;13.40;87.40;;;;;;5069305;28;20214;-91
2020/12/23 09:59:34;;;;;;;2.03;1.90;;;13.60;86.30;;;;;;5065571;28;20416;-91
2020/12/23 10:02:00;;;;;;;3.40;2.00;;;13.60;85.80;;;;;;5067684;28;20224;-90
2020/12/23 10:04:26;;;;;;;5.93;1.80;;;13.80;85.30;;;;;;5067220;28;20272;-91
2020/12/23 10:06:51;;;;;;;3.30;1.80;;;13.80;85.40;;;;;;5065726;28;20184;-91
2020/12/23 10:09:17;;;;;;;3.23;1.90;;;13.70;84.90;;;;;;5069795;28;20263;-90
2020/12/23 10:11:43;;;;;;;2.00;1.90;;;13.70;84.20;;;;;;5064723;28;20593;-90
2020/12/23 10:14:09;;;;;;;2.30;1.77;;;13.80;84.10;;;;;;5070260;28;20226;-91
2020/12/23 10:16:35;;;;;;;2.50;1.70;;;13.90;83.80;;;;;;5053411;28;20193;-90
2020/12/23 10:19:01;;;;;;;3.30;2.00;;;13.80;83.20;;;;;;5065879;28;20193;-90
2020/12/23 10:21:27;;;;;;;2.33;1.80;;;14.00;82.80;;;;;;5070032;28;20255;-90
2020/12/23 10:23:54;;;;;;;2.00;1.80;;;14.00;83.80;;;;;;5070070;28;20188;-91
2020/12/23 10:26:20;;;;;;;2.10;1.80;;;14.10;83.00;;;;;;5045991;28;20197;-90
2020/12/23 10:28:46;;;;;;;2.00;1.90;;;14.30;81.90;;;;;;5066136;28;20192;-90
2020/12/23 10:31:13;;;;;;;3.43;2.07;;;14.20;83.00;;;;;;5069977;28;20212;-90
2020/12/23 10:33:39;;;;;;;2.30;1.90;;;14.20;84.00;;;;;;5065939;28;20214;-90
2020/12/23 10:36:12;;;;;;;2.67;1.80;;;14.10;84.20;;;;;;5069151;28;20197;-89
2020/12/23 10:38:40;;;;;;;2.37;1.80;;;14.30;82.40;;;;;;5066276;28;20208;-90
2020/12/23 10:41:05;;;;;;;2.53;2.03;;;14.40;82.20;;;;;;5076143;28;20207;-91
2020/12/23 10:43:31;;;;;;;1.80;1.70;;;14.40;81.40;;;;;;5081407;28;20209;-89
2020/12/23 10:45:57;;;;;;;1.70;1.60;;;14.40;81.20;;;;;;5071856;28;20214;-90
2020/12/23 10:48:23;;;;;;;1.80;1.70;;;14.40;80.60;;;;;;5075547;28;20207;-89
2020/12/23 10:50:48;;;;;;;1.80;1.70;;;14.60;79.00;;;;;;5066594;28;20254;-89
2020/12/23 10:53:14;;;;;;;2.03;1.83;;;14.60;79.30;;;;;;5062033;28;20249;-89
2020/12/23 10:55:40;;;;;;;2.10;1.80;;;14.70;78.00;;;;;;5070491;28;20208;-88
2020/12/23 10:58:05;;;;;;;2.63;2.00;;;14.80;77.80;;;;;;5074201;28;20214;-90
2020/12/23 11:00:31;;;;;;;1.93;1.80;;;14.70;78.40;;;;;;5075829;28;20184;-91
2020/12/23 11:02:58;;;;;;;3.63;2.10;;;14.80;77.60;;;;;;5071650;28;20207;-91
2020/12/23 11:05:23;;;;;;;2.13;1.97;;;14.80;78.50;;;;;;5076980;28;20225;-89
2020/12/23 11:07:49;;;;;;;2.73;2.03;;;14.80;76.20;;;;;;5073723;28;20199;-91
2020/12/23 11:10:15;;;;;;;2.27;1.90;;;14.90;77.00;;;;;;5067518;28;20578;-90
2020/12/23 11:12:41;;;;;;;1.80;1.70;;;14.90;75.70;;;;;;5069545;28;20331;-89
2020/12/23 11:15:07;;;;;;;1.60;1.50;;;14.90;76.50;;;;;;5071857;28;20254;-91
2020/12/23 11:17:33;;;;;;;1.80;1.70;;;15.00;76.60;;;;;;5077269;28;20204;-91
2020/12/23 11:19:58;;;;;;;2.30;1.70;;;14.90;77.90;;;;;;5071217;28;20588;-90
2020/12/23 11:22:24;;;;;;;1.80;1.70;;;14.90;79.10;;;;;;5075760;28;20205;-90
2020/12/23 11:24:50;;;;;;;1.60;1.50;;;14.90;79.50;;;;;;5073511;28;20278;-88
2020/12/23 11:27:16;;;;;;;1.60;1.50;;;14.70;79.40;;;;;;5071978;28;20234;-88
2020/12/23 11:29:42;;;;;;;1.70;1.60;;;14.70;79.80;;;;;;5066666;28;20211;-88
2020/12/23 11:32:08;;;;;;;1.80;1.70;;;14.70;81.20;;;;;;5069998;28;20216;-88
2020/12/23 11:34:34;;;;;;;2.07;1.93;;;14.60;79.50;;;;;;5074638;28;20216;-88
2020/12/23 11:37:00;;;;;;;3.00;1.93;;;14.70;80.50;;;;;;5074532;28;20209;-89
2020/12/23 11:39:26;;;;;;;2.67;2.47;;;14.60;81.30;;;;;;5071807;28;20186;-90
2020/12/23 11:42:00;;;;;;;2.10;1.90;;;14.50;81.80;;;;;;5071004;28;20200;-89
2020/12/23 11:44:27;;;;;;;3.20;2.30;;;14.50;81.40;;;;;;5069215;28;20229;-89
2020/12/23 11:46:53;;;;;;;2.57;2.37;;;14.50;83.50;;;;;;5072852;28;20238;-90
2020/12/23 11:49:19;;;;;;;3.53;2.37;;;14.50;83.50;;;;;;5065148;28;20672;-89
2020/12/23 11:51:47;;;;;;;3.30;2.20;;;14.50;83.30;;;;;;5069154;28;20194;-89
2020/12/23 11:54:13;;;;;;;2.73;2.37;;;14.40;84.00;;;;;;5086626;28;20198;-89
2020/12/23 11:56:38;;;;;;;2.77;2.30;;;14.40;84.80;;;;;;5079691;28;20209;-89
2020/12/23 11:59:07;;;;;;;2.47;2.27;;;14.40;84.20;;;;;;5066192;28;20192;-88
2020/12/23 12:01:32;;;;;;;2.30;2.20;;;14.40;84.60;;;;;;5062005;28;20175;-88
2020/12/23 12:03:58;;;;;;;2.93;2.57;;;14.40;84.60;;;;;;5087253;28;20217;-87
2020/12/23 12:06:24;;;;;;;2.80;2.30;;;14.40;84.90;;;;;;5083246;28;20210;-88
2020/12/23 12:08:50;;;;;;;2.80;2.60;;;14.30;85.00;;;;;;5069151;28;20291;-89
2020/12/23 12:11:16;;;;;;;2.80;2.50;;;14.20;86.50;;;;;;5079719;28;20701;-90
2020/12/23 12:13:45;;;;;;;2.90;2.60;;;14.20;85.50;;;;;;5070684;28;20215;-87
2020/12/23 12:16:11;;;;;;;3.17;2.87;;;14.10;86.50;;;;;;5074297;28;20657;-89
2020/12/23 12:18:37;;;;;;;4.00;2.97;;;14.00;88.60;;;;;;5073758;28;20222;-89
2020/12/23 12:21:04;;;;;;;3.67;2.47;;;13.90;88.30;;;;;;5077329;28;20557;-90
2020/12/23 12:23:30;;;;;;;3.63;2.80;;;14.00;87.90;;;;;;5079413;28;20205;-91
2020/12/23 12:25:55;;;;;;;2.87;2.67;;;14.00;88.50;;;;;;5067365;28;20267;-90
2020/12/23 12:28:21;;;;;;;2.67;2.23;;;13.90;87.80;;;;;;5077257;28;20187;-88
2020/12/23 12:30:47;;;;;;;2.47;2.10;;;14.00;87.70;;;;;;5074699;28;20666;-89
2020/12/23 12:33:15;;;;;;;2.90;2.60;;;14.00;88.10;;;;;;5066165;28;20211;-89
2020/12/23 12:35:43;;;;;;;3.60;2.60;;;14.00;88.20;;;;;;5069022;28;20190;-88
2020/12/23 12:38:11;;;;;;;2.80;2.37;;;14.00;88.60;;;;;;5068549;28;20212;-87
2020/12/23 12:40:40;;;;;;;3.50;2.13;;;14.00;88.40;;;;;;5071136;28;20203;-87
2020/12/23 12:43:06;;;;;;;3.03;2.10;;;14.20;86.90;;;;;;5069547;28;20243;-88
2020/12/23 12:45:33;;;;;;;3.80;2.43;;;14.20;86.40;;;;;;5073403;28;20191;-88
2020/12/23 12:47:59;;;;;;;2.60;2.00;;;14.10;87.20;;;;;;5071585;28;20195;-88